createdAt,value
2022-11-25T00:02:35.517Z,74.62
2022-11-25T00:05:37.252Z,74.65
2022-11-25T00:08:40.221Z,74.59
2022-11-25T00:11:42.333Z,74.67
2022-11-25T00:14:43.916Z,74.82
2022-11-25T00:17:45.545Z,74.42
2022-11-25T00:20:47.126Z,74.49
2022-11-25T00:24:07.406Z,74.63
2022-11-25T00:27:08.952Z,74.50
2022-11-25T00:30:10.940Z,74.32
2022-11-25T00:33:12.565Z,74.52
2022-11-25T00:36:19.836Z,74.41
2022-11-25T00:39:23.902Z,74.57
2022-11-25T00:42:44.113Z,74.50
2022-11-25T00:45:45.707Z,74.44
2022-11-25T00:48:47.324Z,74.40
2022-11-25T00:51:48.924Z,74.66
2022-11-25T00:54:51.068Z,74.68
2022-11-25T00:57:52.648Z,74.53
2022-11-25T01:00:54.269Z,74.77
2022-11-25T01:03:56.117Z,74.39
2022-11-25T01:06:59.392Z,74.87
2022-11-25T01:10:00.950Z,74.70
2022-11-25T01:13:02.648Z,74.61
2022-11-25T01:16:06.033Z,74.70
2022-11-25T01:19:08.039Z,74.66
2022-11-25T01:22:09.781Z,74.45
2022-11-25T01:25:11.451Z,74.73
2022-11-25T01:28:13.341Z,74.76
2022-11-25T01:31:17.671Z,74.78
2022-11-25T01:34:21.470Z,74.73
2022-11-25T01:37:23.077Z,74.85
2022-11-25T01:40:24.681Z,74.89
2022-11-25T01:43:27.209Z,74.78
2022-11-25T01:46:36.283Z,74.91
2022-11-25T01:49:44.186Z,75.02
2022-11-25T01:52:50.025Z,75.03
2022-11-25T01:55:58.147Z,74.94
2022-11-25T01:58:59.785Z,75.11
2022-11-25T02:02:01.949Z,74.94
2022-11-25T02:05:08.225Z,75.14
2022-11-25T02:08:10.037Z,74.82
2022-11-25T02:11:13.869Z,75.04
2022-11-25T02:14:17.282Z,75.17
2022-11-25T02:17:19.810Z,75.07
2022-11-25T02:20:22.833Z,74.76
2022-11-25T02:24:20.200Z,75.08
2022-11-25T02:27:22.015Z,74.94
2022-11-25T02:30:23.647Z,75.25
2022-11-25T02:33:26.773Z,75.00
2022-11-25T02:36:30.833Z,75.44
2022-11-25T02:39:32.381Z,74.99
2022-11-25T02:42:34.127Z,75.06
2022-11-25T02:45:50.104Z,75.23
2022-11-25T02:49:08.537Z,75.11
2022-11-25T02:52:11.342Z,75.30
2022-11-25T02:55:12.941Z,75.23
2022-11-25T02:58:15.654Z,75.03
2022-11-25T03:01:17.389Z,75.11
2022-11-25T03:04:19.163Z,75.07
2022-11-25T03:07:20.876Z,75.31
2022-11-25T03:10:22.615Z,75.23
2022-11-25T03:13:24.152Z,75.13
2022-11-25T03:16:25.674Z,75.21
2022-11-25T03:19:27.376Z,75.26
2022-11-25T03:22:29.294Z,75.20
2022-11-25T03:25:31.411Z,75.04
2022-11-25T03:28:32.986Z,75.15
2022-11-25T03:31:34.566Z,75.17
2022-11-25T03:34:36.733Z,75.38
2022-11-25T03:37:38.910Z,75.42
2022-11-25T03:40:41.321Z,75.28
2022-11-25T03:43:43.671Z,75.59
2022-11-25T03:46:45.471Z,75.56
2022-11-25T03:49:47.593Z,75.66
2022-11-25T03:52:49.310Z,75.65
2022-11-25T03:55:51.980Z,75.55
2022-11-25T03:58:55.083Z,75.50
2022-11-25T04:01:57.016Z,75.74
2022-11-25T04:04:58.799Z,75.59
2022-11-25T04:08:00.492Z,75.77
2022-11-25T04:11:02.303Z,75.75
2022-11-25T04:14:06.011Z,75.74
2022-11-25T04:17:07.824Z,75.69
2022-11-25T04:20:11.944Z,75.67
2022-11-25T04:23:14.184Z,75.83
2022-11-25T04:26:20.557Z,75.85
2022-11-25T04:29:22.755Z,76.05
2022-11-25T04:32:24.650Z,75.79
2022-11-25T04:35:26.701Z,75.81
2022-11-25T04:38:29.127Z,75.82
2022-11-25T04:41:32.743Z,75.82
2022-11-25T04:44:34.627Z,75.78
2022-11-25T04:47:36.682Z,75.82
2022-11-25T04:50:38.272Z,75.89
2022-11-25T04:53:45.062Z,75.98
2022-11-25T04:56:47.270Z,76.04
2022-11-25T04:59:49.076Z,76.17
2022-11-25T05:02:50.699Z,75.93
2022-11-25T05:05:55.035Z,75.99
2022-11-25T05:08:57.358Z,76.00
2022-11-25T05:11:59.852Z,76.01
2022-11-25T05:15:01.831Z,75.92
2022-11-25T05:18:03.602Z,76.13
2022-11-25T05:21:32.534Z,75.88
2022-11-25T05:24:34.675Z,76.15
2022-11-25T05:27:37.366Z,76.02
2022-11-25T05:30:44.646Z,75.99
2022-11-25T05:33:46.298Z,76.33
2022-11-25T05:36:49.383Z,76.12
2022-11-25T05:39:51.637Z,75.92
2022-11-25T05:43:22.903Z,76.14
2022-11-25T05:46:24.607Z,76.09
2022-11-25T05:49:29.075Z,76.08
2022-11-25T05:52:31.331Z,76.02
2022-11-25T05:55:33.709Z,76.32
2022-11-25T05:58:35.941Z,76.36
2022-11-25T06:01:38.006Z,76.40
2022-11-25T06:04:39.835Z,76.25
2022-11-25T06:07:41.572Z,76.26
2022-11-25T06:10:43.409Z,76.34
2022-11-25T06:13:45.233Z,76.41
2022-11-25T06:16:47.171Z,76.30
2022-11-25T06:19:55.434Z,76.20
2022-11-25T06:22:58.040Z,76.26
2022-11-25T06:26:11.597Z,76.38
2022-11-25T06:29:14.348Z,76.31
2022-11-25T06:32:17.651Z,76.46
2022-11-25T06:35:42.009Z,76.42
2022-11-25T06:38:49.436Z,76.34
2022-11-25T06:41:51.071Z,76.45
2022-11-25T06:44:53.413Z,76.30
2022-11-25T06:47:55.051Z,76.41
2022-11-25T06:51:23.914Z,76.44
2022-11-25T06:54:25.486Z,76.76
2022-11-25T06:57:27.248Z,76.39
2022-11-25T07:00:28.896Z,76.73
2022-11-25T07:03:31.124Z,76.48
2022-11-25T07:06:33.263Z,76.61
2022-11-25T07:09:34.865Z,76.39
2022-11-25T07:12:36.676Z,76.49
2022-11-25T07:15:38.260Z,76.57
2022-11-25T07:18:40.869Z,76.33
2022-11-25T07:21:44.943Z,76.24
2022-11-25T07:24:46.562Z,76.59
2022-11-25T07:27:48.226Z,76.65
2022-11-25T07:34:20.129Z,76.49
2022-11-25T07:37:21.759Z,76.63
2022-11-25T07:40:23.286Z,76.70
2022-11-25T07:43:24.803Z,76.66
2022-11-25T07:46:35.802Z,76.78
2022-11-25T07:49:37.644Z,76.70
2022-11-25T07:52:40.269Z,76.91
2022-11-25T07:55:41.872Z,76.94
2022-11-25T07:58:46.162Z,76.83
2022-11-25T08:01:50.207Z,76.83
2022-11-25T08:04:51.929Z,76.84
2022-11-25T08:07:53.703Z,77.03
2022-11-25T08:10:55.576Z,76.83
2022-11-25T08:13:57.420Z,77.08
2022-11-25T08:16:59.098Z,76.92
2022-11-25T08:20:00.797Z,76.85
2022-11-25T08:23:05.391Z,76.78
2022-11-25T08:26:10.746Z,77.05
2022-11-25T08:29:15.101Z,76.95
2022-11-25T08:32:16.748Z,77.12
2022-11-25T08:35:19.355Z,77.24
2022-11-25T08:38:21.263Z,77.18
2022-11-25T08:41:35.558Z,77.26
2022-11-25T08:44:37.532Z,77.30
2022-11-25T08:47:39.226Z,77.32
2022-11-25T08:50:46.794Z,77.57
2022-11-25T08:53:50.618Z,77.27
2022-11-25T08:56:52.257Z,77.33
2022-11-25T08:59:53.873Z,77.38
2022-11-25T09:02:56.018Z,77.27
2022-11-25T09:05:57.959Z,77.21
2022-11-25T09:09:01.079Z,78.01
2022-11-25T09:12:03.278Z,78.46
2022-11-25T09:15:05.446Z,78.19
2022-11-25T09:18:09.134Z,78.20
2022-11-25T09:21:14.614Z,77.80
2022-11-25T09:24:16.325Z,77.75
2022-11-25T09:27:17.888Z,77.92
2022-11-25T09:30:19.577Z,78.07
2022-11-25T09:33:21.234Z,77.69
2022-11-25T09:36:24.264Z,77.84
2022-11-25T09:39:30.045Z,77.98
2022-11-25T09:43:06.286Z,77.54
2022-11-25T09:46:38.914Z,77.63
2022-11-25T09:49:47.643Z,77.63
2022-11-25T09:53:08.475Z,77.59
2022-11-25T09:56:46.567Z,77.53
2022-11-25T10:00:01.109Z,77.69
2022-11-25T10:03:38.908Z,77.88
2022-11-25T10:06:56.609Z,77.54
2022-11-25T10:10:02.594Z,77.27
2022-11-25T10:13:08.506Z,77.59
2022-11-25T10:16:26.310Z,77.30
2022-11-25T10:20:00.395Z,77.43
2022-11-25T10:23:28.010Z,77.11
2022-11-25T10:26:37.668Z,77.26
2022-11-25T10:29:39.224Z,77.11
2022-11-25T10:32:44.970Z,77.13
2022-11-25T10:35:51.796Z,77.05
2022-11-25T10:39:23.712Z,77.08
2022-11-25T10:42:28.001Z,76.84
2022-11-25T10:45:40.022Z,77.10
2022-11-25T10:48:53.600Z,76.86
2022-11-25T10:51:57.256Z,76.83
2022-11-25T10:55:11.440Z,76.98
2022-11-25T11:01:47.514Z,76.89
2022-11-25T11:05:08.913Z,76.69
2022-11-25T11:08:19.111Z,76.71
2022-11-25T11:11:23.029Z,76.82
2022-11-25T11:14:29.242Z,76.71
2022-11-25T11:17:36.758Z,76.78
2022-11-25T11:20:48.851Z,76.63
2022-11-25T11:23:55.015Z,76.93
2022-11-25T11:27:04.596Z,76.71
2022-11-25T11:30:15.298Z,76.70
2022-11-25T11:33:43.008Z,76.77
2022-11-25T11:36:50.636Z,76.82
2022-11-25T11:40:21.535Z,76.86
2022-11-25T11:44:05.434Z,76.82
2022-11-25T11:47:16.059Z,76.70
2022-11-25T11:50:31.950Z,76.67
2022-11-25T11:53:53.993Z,76.62
2022-11-25T11:57:06.901Z,76.56
2022-11-25T12:00:12.112Z,76.58
2022-11-25T12:03:22.167Z,76.65
2022-11-25T12:06:27.517Z,76.52
2022-11-25T12:09:32.066Z,76.41
2022-11-25T12:12:40.173Z,76.45
2022-11-25T12:15:46.926Z,76.40
2022-11-25T12:18:54.400Z,76.37
2022-11-25T12:21:55.986Z,76.33
2022-11-25T12:25:08.409Z,76.37
2022-11-25T12:28:24.321Z,76.41
2022-11-25T12:31:34.577Z,76.64
2022-11-25T12:34:43.999Z,76.55
2022-11-25T12:38:04.523Z,76.50
2022-11-25T12:41:18.708Z,76.54
2022-11-25T12:44:37.154Z,76.72
2022-11-25T12:47:39.037Z,76.73
2022-11-25T12:50:59.034Z,76.77
2022-11-25T12:54:04.818Z,76.72
2022-11-25T12:57:25.436Z,76.77
2022-11-25T13:00:46.099Z,76.63
2022-11-25T13:03:50.894Z,76.67
2022-11-25T13:06:52.545Z,76.64
2022-11-25T13:10:19.525Z,76.69
2022-11-25T13:13:33.255Z,76.62
2022-11-25T13:16:35.493Z,76.51
2022-11-25T13:19:37.552Z,76.63
2022-11-25T13:22:39.272Z,76.65
2022-11-25T13:25:42.944Z,76.39
2022-11-25T13:28:45.003Z,76.61
2022-11-25T13:31:58.742Z,76.59
2022-11-25T13:35:31.074Z,76.77
2022-11-25T13:38:49.146Z,76.75
2022-11-25T13:42:04.772Z,76.72
2022-11-25T13:45:29.251Z,76.75
2022-11-25T13:48:36.404Z,76.86
2022-11-25T13:51:48.871Z,76.70
2022-11-25T13:54:54.973Z,76.83
2022-11-25T13:58:26.222Z,76.82
2022-11-25T14:01:30.256Z,76.90
2022-11-25T14:04:51.569Z,76.86
2022-11-25T14:08:19.127Z,76.72
2022-11-25T14:11:43.360Z,76.70
2022-11-25T14:15:04.968Z,76.73
2022-11-25T14:19:03.149Z,76.80
2022-11-25T14:22:07.165Z,76.82
2022-11-25T14:25:29.527Z,76.76
2022-11-25T14:28:51.512Z,76.74
2022-11-25T14:31:58.020Z,76.77
2022-11-25T14:35:03.523Z,76.98
2022-11-25T14:38:12.967Z,76.70
2022-11-25T14:41:27.765Z,76.81
2022-11-25T14:44:45.773Z,76.69
2022-11-25T14:47:47.535Z,77.00
2022-11-25T14:51:00.785Z,76.93
2022-11-25T14:54:06.851Z,77.07
2022-11-25T14:57:08.797Z,76.84
2022-11-25T15:00:14.845Z,76.99
2022-11-25T15:03:19.499Z,76.92
2022-11-25T15:06:21.690Z,76.84
2022-11-25T15:09:27.067Z,77.06
2022-11-25T15:12:32.340Z,76.92
2022-11-25T15:15:34.211Z,77.00
2022-11-25T15:18:36.746Z,77.11
2022-11-25T15:22:07.547Z,77.14
2022-11-25T15:25:13.800Z,77.05
2022-11-25T15:28:16.135Z,77.31
2022-11-25T15:31:20.380Z,77.31
2022-11-25T15:34:23.455Z,77.12
2022-11-25T15:37:25.456Z,77.15
2022-11-25T15:40:37.534Z,77.20
2022-11-25T15:43:44.493Z,77.32
2022-11-25T15:47:05.252Z,77.16
2022-11-25T15:50:28.091Z,77.34
2022-11-25T15:53:36.166Z,77.14
2022-11-25T15:56:43.889Z,77.32
2022-11-25T15:59:45.821Z,77.13
2022-11-25T16:02:47.491Z,77.25
2022-11-25T16:05:56.477Z,77.36
2022-11-25T16:09:00.347Z,77.33
2022-11-25T16:12:06.567Z,77.54
2022-11-25T16:15:17.738Z,77.43
2022-11-25T16:18:39.767Z,77.46
2022-11-25T16:21:50.533Z,77.38
2022-11-25T16:25:00.400Z,77.41
2022-11-25T16:28:03.972Z,77.25
2022-11-25T16:31:05.747Z,77.41
2022-11-25T16:34:18.770Z,77.47
2022-11-25T16:37:20.395Z,77.30
2022-11-25T16:40:23.708Z,77.30
2022-11-25T16:43:27.834Z,77.54
2022-11-25T16:46:29.639Z,77.61
2022-11-25T16:49:31.761Z,77.49
2022-11-25T16:52:33.369Z,77.63
2022-11-25T16:55:36.096Z,77.57
2022-11-25T16:58:37.671Z,77.71
2022-11-25T17:01:39.465Z,77.69
2022-11-25T17:04:41.117Z,77.83
2022-11-25T17:07:42.882Z,77.68
2022-11-25T17:10:45.463Z,77.65
2022-11-25T17:13:50.212Z,77.81
2022-11-25T17:16:51.905Z,77.75
2022-11-25T17:19:53.630Z,77.99
2022-11-25T17:22:55.338Z,77.99
2022-11-25T17:25:57.233Z,77.73
2022-11-25T17:29:02.422Z,77.94
2022-11-25T17:32:06.707Z,77.66
2022-11-25T17:35:18.172Z,77.78
2022-11-25T17:38:21.079Z,77.74
2022-11-25T17:41:27.459Z,77.92
2022-11-25T17:44:32.787Z,78.05
2022-11-25T17:47:34.443Z,77.86
2022-11-25T17:51:07.119Z,77.93
2022-11-25T17:54:03.233Z,78.03
2022-11-25T17:57:16.712Z,77.89
2022-11-25T18:00:52.975Z,78.03
2022-11-25T18:03:56.594Z,78.02
2022-11-25T18:06:58.172Z,78.03
2022-11-25T18:09:59.759Z,77.97
2022-11-25T18:13:42.839Z,78.01
2022-11-25T18:17:06.077Z,77.93
2022-11-25T18:20:23.314Z,77.94
2022-11-25T18:23:24.956Z,78.07
2022-11-25T18:26:26.669Z,78.14
2022-11-25T18:29:29.448Z,78.01
2022-11-25T18:32:31.092Z,78.02
2022-11-25T18:35:36.575Z,77.96
2022-11-25T18:38:42.083Z,77.92
2022-11-25T18:41:45.970Z,78.04
2022-11-25T18:44:47.661Z,78.12
2022-11-25T18:47:49.351Z,78.03
2022-11-25T18:50:54.191Z,78.08
2022-11-25T18:53:55.749Z,78.03
2022-11-25T18:56:57.359Z,78.15
2022-11-25T19:00:30.588Z,78.08
2022-11-25T19:03:24.165Z,78.00
2022-11-25T19:06:29.265Z,78.26
2022-11-25T19:09:31.068Z,78.41
2022-11-25T19:12:32.738Z,78.20
2022-11-25T19:15:36.651Z,77.89
2022-11-25T19:18:38.761Z,78.11
2022-11-25T19:21:40.519Z,78.03
2022-11-25T19:24:42.330Z,78.05
2022-11-25T19:27:56.849Z,78.04
2022-11-25T19:31:00.702Z,78.24
2022-11-25T19:34:02.881Z,78.27
2022-11-25T19:37:04.678Z,78.11
2022-11-25T19:40:13.571Z,78.05
2022-11-25T19:43:15.194Z,78.17
2022-11-25T19:46:25.676Z,78.01
2022-11-25T19:49:30.908Z,78.08
2022-11-25T19:52:37.114Z,77.93
2022-11-25T19:55:38.762Z,78.17
2022-11-25T19:58:40.301Z,77.98
2022-11-25T20:01:44.715Z,78.06
2022-11-25T20:04:48.442Z,78.27
2022-11-25T20:07:51.368Z,78.08
2022-11-25T20:10:53.302Z,78.08
2022-11-25T20:13:56.473Z,77.94
2022-11-25T20:17:00.157Z,77.85
2022-11-25T20:20:28.780Z,77.92
2022-11-25T20:23:43.983Z,78.09
2022-11-25T20:26:55.162Z,78.12
2022-11-25T20:29:59.989Z,78.02
2022-11-25T20:33:01.858Z,77.88
2022-11-25T20:36:09.769Z,78.03
2022-11-25T20:39:18.699Z,77.94
2022-11-25T20:42:21.758Z,77.94
2022-11-25T20:45:23.767Z,77.83
2022-11-25T20:48:26.447Z,77.89
2022-11-25T20:51:37.361Z,77.94
2022-11-25T20:54:39.143Z,77.93
2022-11-25T20:57:41.169Z,78.07
2022-11-25T21:00:42.891Z,77.83
2022-11-25T21:03:45.606Z,77.76
2022-11-25T21:06:47.245Z,77.86
2022-11-25T21:09:49.128Z,77.91
2022-11-25T21:12:51.665Z,77.73
2022-11-25T21:15:53.529Z,77.66
2022-11-25T21:18:55.233Z,77.70
2022-11-25T21:21:57.104Z,77.69
2022-11-25T21:24:58.761Z,77.93
2022-11-25T21:28:01.339Z,77.78
2022-11-25T21:31:07.017Z,77.70
2022-11-25T21:34:13.121Z,77.67
2022-11-25T21:37:17.550Z,77.61
2022-11-25T21:40:40.279Z,77.84
2022-11-25T21:43:44.393Z,77.74
2022-11-25T21:46:46.107Z,77.76
2022-11-25T21:49:48.797Z,77.55
2022-11-25T21:52:50.541Z,77.61
2022-11-25T21:55:52.678Z,77.64
2022-11-25T21:58:56.412Z,77.73
2022-11-25T22:02:01.434Z,77.51
2022-11-25T22:05:14.142Z,77.69
2022-11-25T22:08:16.694Z,77.72
2022-11-25T22:11:21.383Z,77.66
2022-11-25T22:14:33.881Z,77.54
2022-11-25T22:17:35.727Z,77.66
2022-11-25T22:20:37.549Z,77.71
2022-11-25T22:23:41.891Z,77.48
2022-11-25T22:26:46.225Z,77.71
2022-11-25T22:29:48.712Z,77.57
2022-11-25T22:32:59.173Z,77.45
2022-11-25T22:36:01.919Z,77.33
2022-11-25T22:39:25.780Z,77.28
2022-11-25T22:42:30.771Z,77.32
2022-11-25T22:45:33.749Z,77.34
2022-11-25T22:48:38.032Z,77.16
2022-11-25T22:51:39.754Z,77.10
2022-11-25T22:54:41.446Z,76.95
2022-11-25T22:57:43.606Z,76.88
2022-11-25T23:00:46.892Z,76.60
2022-11-25T23:03:48.813Z,76.72
2022-11-25T23:06:51.156Z,76.58
2022-11-25T23:09:53.448Z,76.42
2022-11-25T23:12:55.870Z,76.45
2022-11-25T23:16:03.335Z,76.36
2022-11-25T23:19:06.258Z,76.38
2022-11-25T23:22:11.702Z,76.45
2022-11-25T23:25:17.397Z,76.55
2022-11-25T23:28:19.211Z,76.31
2022-11-25T23:31:20.854Z,76.65
2022-11-25T23:34:22.507Z,76.59
2022-11-25T23:37:24.090Z,76.32
2022-11-25T23:40:26.370Z,76.51
2022-11-25T23:43:27.835Z,76.71
2022-11-25T23:46:32.743Z,76.46
2022-11-25T23:49:43.438Z,76.49
2022-11-25T23:52:45.288Z,76.61
2022-11-25T23:55:47.168Z,76.34
2022-11-25T23:58:51.777Z,76.61
